sensor_id;sensor_type;location;lat;lon;timestamp;pressure;altitude;pressure_sealevel;temperature;humidity
11017;BME280;54687;50.800;6.772;2023-07-16T00:02:23;92271.50;;;-144.06;25.93
11017;BME280;54687;50.800;6.772;2023-07-16T00:04:49;92275.72;;;-144.06;25.62
11017;BME280;54687;50.800;6.772;2023-07-16T00:07:16;92320.16;;;-144.06;25.80
11017;BME280;54687;50.800;6.772;2023-07-16T00:09:43;92303.22;;;-144.06;26.08
11017;BME280;54687;50.800;6.772;2023-07-16T00:12:10;92360.34;;;-144.06;25.98
11017;BME280;54687;50.800;6.772;2023-07-16T00:14:38;92296.88;;;-144.06;25.86
11017;BME280;54687;50.800;6.772;2023-07-16T00:17:05;92309.56;;;-144.06;25.92
11017;BME280;54687;50.800;6.772;2023-07-16T00:19:31;92292.66;;;-144.06;25.72
11017;BME280;54687;50.800;6.772;2023-07-16T00:21:58;92265.16;;;-144.06;25.56
11017;BME280;54687;50.800;6.772;2023-07-16T00:24:24;92301.09;;;-144.06;25.78
11017;BME280;54687;50.800;6.772;2023-07-16T00:26:52;92279.94;;;-144.06;25.73
11017;BME280;54687;50.800;6.772;2023-07-16T00:29:18;92273.59;;;-144.06;26.14
11017;BME280;54687;50.800;6.772;2023-07-16T00:31:46;92279.94;;;-144.06;26.00
11017;BME280;54687;50.800;6.772;2023-07-16T00:34:13;92385.72;;;-144.06;25.76
11017;BME280;54687;50.800;6.772;2023-07-16T00:36:39;92360.34;;;-144.06;25.84
11017;BME280;54687;50.800;6.772;2023-07-16T00:39:06;92364.56;;;-144.06;25.88
11017;BME280;54687;50.800;6.772;2023-07-16T00:41:32;92385.72;;;-144.06;25.95
11017;BME280;54687;50.800;6.772;2023-07-16T00:43:59;92389.97;;;-144.06;26.17
11017;BME280;54687;50.800;6.772;2023-07-16T00:46:26;92364.56;;;-144.06;25.88
11017;BME280;54687;50.800;6.772;2023-07-16T00:48:54;92328.59;;;-144.06;25.88
11017;BME280;54687;50.800;6.772;2023-07-16T00:51:21;92425.91;;;-144.06;26.03
11017;BME280;54687;50.800;6.772;2023-07-16T00:53:48;92379.38;;;-144.06;25.97
11017;BME280;54687;50.800;6.772;2023-07-16T00:56:16;92387.84;;;-144.06;26.05
11017;BME280;54687;50.800;6.772;2023-07-16T00:58:43;92447.06;;;-144.06;26.04
11017;BME280;54687;50.800;6.772;2023-07-16T01:01:09;92432.25;;;-144.06;26.27
11017;BME280;54687;50.800;6.772;2023-07-16T01:03:36;92415.34;;;-144.06;26.08
11017;BME280;54687;50.800;6.772;2023-07-16T01:06:10;92432.25;;;-144.06;26.25
11017;BME280;54687;50.800;6.772;2023-07-16T01:08:41;92525.34;;;-144.06;26.41
11017;BME280;54687;50.800;6.772;2023-07-16T01:11:09;92588.81;;;-144.06;26.21
11017;BME280;54687;50.800;6.772;2023-07-16T01:13:36;92582.47;;;-144.06;26.23
11017;BME280;54687;50.800;6.772;2023-07-16T01:16:03;92607.84;;;-144.06;26.28
11017;BME280;54687;50.800;6.772;2023-07-16T01:18:30;92586.69;;;-144.06;26.14
11017;BME280;54687;50.800;6.772;2023-07-16T01:20:57;92614.19;;;-144.06;26.42
11017;BME280;54687;50.800;6.772;2023-07-16T01:23:37;92664.97;;;-144.06;26.53
11017;BME280;54687;50.800;6.772;2023-07-16T01:26:18;92641.69;;;-144.06;26.21
11017;BME280;54687;50.800;6.772;2023-07-16T01:29:24;92692.47;;;-144.06;26.35
11017;BME280;54687;50.800;6.772;2023-07-16T01:31:55;92694.59;;;-144.06;26.45
11017;BME280;54687;50.800;6.772;2023-07-16T01:34:23;92675.56;;;-144.06;26.19
11017;BME280;54687;50.800;6.772;2023-07-16T01:36:51;92694.59;;;-144.06;26.46
11017;BME280;54687;50.800;6.772;2023-07-16T01:39:18;92726.31;;;-144.06;26.26
11017;BME280;54687;50.800;6.772;2023-07-16T01:41:45;92775.00;;;-144.06;26.73
11017;BME280;54687;50.800;6.772;2023-07-16T01:44:11;92830.00;;;-144.06;26.69
11017;BME280;54687;50.800;6.772;2023-07-16T01:46:39;92846.91;;;-144.06;26.69
11017;BME280;54687;50.800;6.772;2023-07-16T01:49:06;92836.34;;;-144.06;26.71
11017;BME280;54687;50.800;6.772;2023-07-16T01:51:32;92893.47;;;-144.06;26.64
11017;BME280;54687;50.800;6.772;2023-07-16T01:53:59;92918.84;;;-144.06;26.67
11017;BME280;54687;50.800;6.772;2023-07-16T01:56:26;92940.00;;;-144.06;26.61
11017;BME280;54687;50.800;6.772;2023-07-16T01:58:52;92906.16;;;-144.06;26.65
11017;BME280;54687;50.800;6.772;2023-07-16T02:01:19;92872.31;;;-144.06;26.56
11017;BME280;54687;50.800;6.772;2023-07-16T02:03:46;92876.53;;;-144.06;26.62
11017;BME280;54687;50.800;6.772;2023-07-16T02:06:13;92880.78;;;-144.06;26.53
11017;BME280;54687;50.800;6.772;2023-07-16T02:08:40;92876.53;;;-144.06;26.49
11017;BME280;54687;50.800;6.772;2023-07-16T02:11:06;92863.84;;;-144.06;26.53
11017;BME280;54687;50.800;6.772;2023-07-16T02:13:33;92944.25;;;-144.06;26.72
11017;BME280;54687;50.800;6.772;2023-07-16T02:15:59;92927.31;;;-144.06;26.53
11017;BME280;54687;50.800;6.772;2023-07-16T02:18:26;92906.16;;;-144.06;26.31
11017;BME280;54687;50.800;6.772;2023-07-16T02:20:54;92868.06;;;-144.06;26.68
11017;BME280;54687;50.800;6.772;2023-07-16T02:23:20;92868.06;;;-144.06;26.52
11017;BME280;54687;50.800;6.772;2023-07-16T02:25:47;92961.16;;;-144.06;26.48
11017;BME280;54687;50.800;6.772;2023-07-16T02:28:13;92999.25;;;-144.06;26.62
11017;BME280;54687;50.800;6.772;2023-07-16T02:30:40;93026.75;;;-144.06;26.68
11017;BME280;54687;50.800;6.772;2023-07-16T02:33:07;93037.34;;;-144.06;26.51
11017;BME280;54687;50.800;6.772;2023-07-16T02:35:33;93024.66;;;-144.06;26.64
11017;BME280;54687;50.800;6.772;2023-07-16T02:38:01;93066.97;;;-144.06;26.72
11017;BME280;54687;50.800;6.772;2023-07-16T02:40:28;93028.88;;;-144.06;26.65
11017;BME280;54687;50.800;6.772;2023-07-16T02:42:54;93088.13;;;-144.06;26.83
11017;BME280;54687;50.800;6.772;2023-07-16T02:45:21;93088.13;;;-144.06;26.78
11017;BME280;54687;50.800;6.772;2023-07-16T02:47:47;93143.13;;;-144.06;26.90
11017;BME280;54687;50.800;6.772;2023-07-16T02:50:14;93105.06;;;-144.06;26.74
11017;BME280;54687;50.800;6.772;2023-07-16T02:52:41;93113.50;;;-144.06;26.72
11017;BME280;54687;50.800;6.772;2023-07-16T02:55:09;93126.22;;;-144.06;26.61
11017;BME280;54687;50.800;6.772;2023-07-16T02:57:35;93147.38;;;-144.06;26.78
11017;BME280;54687;50.800;6.772;2023-07-16T03:00:03;93096.59;;;-144.06;26.61
11017;BME280;54687;50.800;6.772;2023-07-16T03:02:30;93261.63;;;-144.06;26.63
11017;BME280;54687;50.800;6.772;2023-07-16T03:04:56;93155.84;;;-144.06;26.86
11017;BME280;54687;50.800;6.772;2023-07-16T03:07:23;93270.09;;;-144.06;27.03
11017;BME280;54687;50.800;6.772;2023-07-16T03:09:49;93259.50;;;-144.06;26.71
11017;BME280;54687;50.800;6.772;2023-07-16T03:12:17;93189.69;;;-144.06;26.71
11017;BME280;54687;50.800;6.772;2023-07-16T03:14:44;93189.69;;;-144.06;26.64
11017;BME280;54687;50.800;6.772;2023-07-16T03:17:10;93181.22;;;-144.06;26.60
11017;BME280;54687;50.800;6.772;2023-07-16T03:19:37;93151.59;;;-144.06;26.62
11017;BME280;54687;50.800;6.772;2023-07-16T03:22:04;93153.72;;;-144.06;26.60
11017;BME280;54687;50.800;6.772;2023-07-16T03:24:30;93255.28;;;-144.06;26.64
11017;BME280;54687;50.800;6.772;2023-07-16T03:26:57;93219.31;;;-144.06;26.69
11017;BME280;54687;50.800;6.772;2023-07-16T03:29:25;93202.38;;;-144.06;26.55
11017;BME280;54687;50.800;6.772;2023-07-16T03:31:51;93204.50;;;-144.06;26.42
11017;BME280;54687;50.800;6.772;2023-07-16T03:34:18;93162.19;;;-144.06;26.47
11017;BME280;54687;50.800;6.772;2023-07-16T03:36:44;93198.16;;;-144.06;26.64
11017;BME280;54687;50.800;6.772;2023-07-16T03:39:12;93259.50;;;-144.06;26.62
11017;BME280;54687;50.800;6.772;2023-07-16T03:41:39;93219.31;;;-144.06;26.65
11017;BME280;54687;50.800;6.772;2023-07-16T03:44:05;93248.94;;;-144.06;26.69
11017;BME280;54687;50.800;6.772;2023-07-16T03:46:33;93215.06;;;-144.06;26.52
11017;BME280;54687;50.800;6.772;2023-07-16T03:49:00;93172.75;;;-144.06;26.75
11017;BME280;54687;50.800;6.772;2023-07-16T03:51:26;93172.75;;;-144.06;26.39
11017;BME280;54687;50.800;6.772;2023-07-16T03:53:53;93172.75;;;-144.06;26.44
11017;BME280;54687;50.800;6.772;2023-07-16T03:56:19;93151.59;;;-144.06;26.46
11017;BME280;54687;50.800;6.772;2023-07-16T03:58:46;93160.06;;;-144.06;26.39
11017;BME280;54687;50.800;6.772;2023-07-16T04:01:13;93177.00;;;-144.06;26.34
11017;BME280;54687;50.800;6.772;2023-07-16T04:03:40;93162.19;;;-144.06;26.43
11017;BME280;54687;50.800;6.772;2023-07-16T04:06:09;93119.84;;;-144.06;26.51
11017;BME280;54687;50.800;6.772;2023-07-16T04:08:36;93145.25;;;-144.06;26.38
11017;BME280;54687;50.800;6.772;2023-07-16T04:11:04;93177.00;;;-144.06;26.38
11017;BME280;54687;50.800;6.772;2023-07-16T04:13:32;93206.63;;;-144.06;26.59
11017;BME280;54687;50.800;6.772;2023-07-16T04:15:59;93193.91;;;-144.06;26.50
11017;BME280;54687;50.800;6.772;2023-07-16T04:18:26;93193.91;;;-144.06;26.62
11017;BME280;54687;50.800;6.772;2023-07-16T04:20:54;93206.63;;;-144.06;26.58
11017;BME280;54687;50.800;6.772;2023-07-16T04:23:20;93282.78;;;-144.06;26.74
11017;BME280;54687;50.800;6.772;2023-07-16T04:25:51;93282.78;;;-144.06;26.69
11017;BME280;54687;50.800;6.772;2023-07-16T04:28:17;93312.41;;;-144.06;26.58
11017;BME280;54687;50.800;6.772;2023-07-16T04:30:44;93299.72;;;-144.06;26.73
11017;BME280;54687;50.800;6.772;2023-07-16T04:33:10;93272.22;;;-144.06;26.59
11017;BME280;54687;50.800;6.772;2023-07-16T04:35:37;93257.41;;;-144.06;26.67
11017;BME280;54687;50.800;6.772;2023-07-16T04:38:05;93219.31;;;-144.06;26.59
11017;BME280;54687;50.800;6.772;2023-07-16T04:40:33;93177.00;;;-144.06;26.61
11017;BME280;54687;50.800;6.772;2023-07-16T04:43:00;93177.00;;;-144.06;26.51
11017;BME280;54687;50.800;6.772;2023-07-16T04:45:26;93219.31;;;-144.06;26.43
11017;BME280;54687;50.800;6.772;2023-07-16T04:47:53;93179.09;;;-144.06;26.30
11017;BME280;54687;50.800;6.772;2023-07-16T04:50:19;93141.03;;;-144.06;26.30
11017;BME280;54687;50.800;6.772;2023-07-16T04:52:46;93105.06;;;-144.06;26.30
11017;BME280;54687;50.800;6.772;2023-07-16T04:55:14;93007.72;;;-144.06;26.05
11017;BME280;54687;50.800;6.772;2023-07-16T04:57:40;93088.13;;;-144.06;26.10
11017;BME280;54687;50.800;6.772;2023-07-16T05:00:08;93056.38;;;-144.06;26.17
11017;BME280;54687;50.800;6.772;2023-07-16T05:02:35;93037.34;;;-144.06;26.08
11017;BME280;54687;50.800;6.772;2023-07-16T05:05:01;92944.25;;;-144.06;25.94
11017;BME280;54687;50.800;6.772;2023-07-16T05:07:29;92901.94;;;-144.06;25.63
11017;BME280;54687;50.800;6.772;2023-07-16T05:09:55;92961.16;;;-144.06;25.58
11017;BME280;54687;50.800;6.772;2023-07-16T05:12:23;92830.00;;;-144.06;25.64
11017;BME280;54687;50.800;6.772;2023-07-16T05:14:51;92821.53;;;-144.06;25.44
11017;BME280;54687;50.800;6.772;2023-07-16T05:17:17;92741.13;;;-144.06;25.26
11017;BME280;54687;50.800;6.772;2023-07-16T05:19:44;92656.50;;;-144.06;24.97
11017;BME280;54687;50.800;6.772;2023-07-16T05:22:10;92660.75;;;-144.06;24.90
11017;BME280;54687;50.800;6.772;2023-07-16T05:24:37;92609.97;;;-144.06;25.10
11017;BME280;54687;50.800;6.772;2023-07-16T05:27:04;92538.03;;;-144.06;25.01
11017;BME280;54687;50.800;6.772;2023-07-16T05:29:32;92470.34;;;-144.06;24.43
11017;BME280;54687;50.800;6.772;2023-07-16T05:31:59;92444.97;;;-144.06;24.87
11017;BME280;54687;50.800;6.772;2023-07-16T05:34:25;92493.63;;;-144.06;24.41
11017;BME280;54687;50.800;6.772;2023-07-16T05:36:53;92550.72;;;-144.06;24.61
11017;BME280;54687;50.800;6.772;2023-07-16T05:39:20;92552.84;;;-144.06;24.63
11017;BME280;54687;50.800;6.772;2023-07-16T05:41:46;92461.88;;;-144.06;24.14
11017;BME280;54687;50.800;6.772;2023-07-16T05:44:13;92483.03;;;-144.06;24.30
11017;BME280;54687;50.800;6.772;2023-07-16T05:46:41;92341.31;;;-144.06;24.38
11017;BME280;54687;50.800;6.772;2023-07-16T05:49:07;92368.81;;;-144.06;23.82
11017;BME280;54687;50.800;6.772;2023-07-16T05:51:34;92273.59;;;-144.06;24.12
11017;BME280;54687;50.800;6.772;2023-07-16T05:54:01;92309.56;;;-144.06;24.25
11017;BME280;54687;50.800;6.772;2023-07-16T05:56:28;92178.41;;;-144.06;23.79
11017;BME280;54687;50.800;6.772;2023-07-16T05:58:55;92167.84;;;-144.06;23.59
11017;BME280;54687;50.800;6.772;2023-07-16T06:01:22;92089.56;;;-144.06;23.68
11017;BME280;54687;50.800;6.772;2023-07-16T06:03:50;91937.28;;;-144.06;23.17
11017;BME280;54687;50.800;6.772;2023-07-16T06:06:17;91696.16;;;-144.06;23.16
11017;BME280;54687;50.800;6.772;2023-07-16T06:08:43;91476.19;;;-144.06;23.13
11017;BME280;54687;50.800;6.772;2023-07-16T06:11:10;91440.25;;;-144.06;22.77
11017;BME280;54687;50.800;6.772;2023-07-16T06:13:36;91535.41;;;-144.06;22.67
11017;BME280;54687;50.800;6.772;2023-07-16T06:16:03;91292.22;;;-144.06;22.69
11017;BME280;54687;50.800;6.772;2023-07-16T06:18:30;91053.25;;;-144.06;22.21
11017;BME280;54687;50.800;6.772;2023-07-16T06:20:58;90932.72;;;-144.06;21.98
11017;BME280;54687;50.800;6.772;2023-07-16T06:23:25;90719.16;;;-144.06;21.80
11017;BME280;54687;50.800;6.772;2023-07-16T06:25:54;90573.25;;;-144.06;21.82
11017;BME280;54687;50.800;6.772;2023-07-16T06:28:20;90300.53;;;-144.06;21.91
11017;BME280;54687;50.800;6.772;2023-07-16T06:30:47;89903.09;;;-144.06;21.74
11017;BME280;54687;50.800;6.772;2023-07-16T06:33:14;89818.53;;;-144.06;21.29
11017;BME280;54687;50.800;6.772;2023-07-16T06:35:44;89480.31;;;-144.06;21.02
11017;BME280;54687;50.800;6.772;2023-07-16T06:38:11;89370.41;;;-144.06;20.94
11017;BME280;54687;50.800;6.772;2023-07-16T06:40:38;89144.28;;;-144.06;20.56
11017;BME280;54687;50.800;6.772;2023-07-16T06:43:05;88711.03;;;-144.06;20.61
11017;BME280;54687;50.800;6.772;2023-07-16T06:45:31;88313.78;;;-144.06;20.45
11017;BME280;54687;50.800;6.772;2023-07-16T06:47:58;88601.16;;;-144.06;20.09
11017;BME280;54687;50.800;6.772;2023-07-16T06:50:24;88406.75;;;-144.06;20.30
11017;BME280;54687;50.800;6.772;2023-07-16T06:52:51;87994.75;;;-144.06;20.35
11017;BME280;54687;50.800;6.772;2023-07-16T06:55:19;88218.69;;;-144.06;20.10
11017;BME280;54687;50.800;6.772;2023-07-16T06:57:45;87819.38;;;-144.06;20.06
11017;BME280;54687;50.800;6.772;2023-07-16T07:00:12;87848.97;;;-144.06;19.70
11017;BME280;54687;50.800;6.772;2023-07-16T07:02:38;87565.88;;;-144.06;19.97
11017;BME280;54687;50.800;6.772;2023-07-16T07:05:06;87316.59;;;-144.06;19.90
11017;BME280;54687;50.800;6.772;2023-07-16T07:07:32;87065.25;;;-144.06;19.97
11017;BME280;54687;50.800;6.772;2023-07-16T07:09:59;86870.94;;;-144.06;19.73
11017;BME280;54687;50.800;6.772;2023-07-16T07:12:27;87246.91;;;-144.06;19.58
11017;BME280;54687;50.800;6.772;2023-07-16T07:14:54;87113.84;;;-144.06;19.82
11017;BME280;54687;50.800;6.772;2023-07-16T07:17:20;87358.84;;;-144.06;19.70
11017;BME280;54687;50.800;6.772;2023-07-16T07:19:47;87758.13;;;-144.06;19.77
11017;BME280;54687;50.800;6.772;2023-07-16T07:22:13;88045.44;;;-144.06;19.73
11017;BME280;54687;50.800;6.772;2023-07-16T07:24:40;88284.19;;;-144.06;19.95
11017;BME280;54687;50.800;6.772;2023-07-16T07:27:06;89345.06;;;-144.06;20.12
11017;BME280;54687;50.800;6.772;2023-07-16T07:29:34;89687.47;;;-144.06;20.50
11017;BME280;54687;50.800;6.772;2023-07-16T07:32:01;90182.13;;;-144.06;20.66
11017;BME280;54687;50.800;6.772;2023-07-16T07:34:27;90499.25;;;-144.06;20.79
11017;BME280;54687;50.800;6.772;2023-07-16T07:36:54;90537.31;;;-144.06;20.87
11017;BME280;54687;50.800;6.772;2023-07-16T07:39:20;90577.50;;;-144.06;21.03
11017;BME280;54687;50.800;6.772;2023-07-16T07:41:47;90647.28;;;-144.06;20.83
11017;BME280;54687;50.800;6.772;2023-07-16T07:44:13;90678.97;;;-144.06;20.64
11017;BME280;54687;50.800;6.772;2023-07-16T07:46:41;90786.81;;;-144.06;21.11
11017;BME280;54687;50.800;6.772;2023-07-16T07:49:08;90962.31;;;-144.06;21.15
11017;BME280;54687;50.800;6.772;2023-07-16T07:51:34;90947.53;;;-144.06;21.12
11017;BME280;54687;50.800;6.772;2023-07-16T07:54:01;90981.34;;;-144.06;21.17
11017;BME280;54687;50.800;6.772;2023-07-16T07:56:27;91006.72;;;-144.06;21.06
11017;BME280;54687;50.800;6.772;2023-07-16T07:58:55;91061.72;;;-144.06;21.11
11017;BME280;54687;50.800;6.772;2023-07-16T08:01:22;91194.94;;;-144.06;21.23
11017;BME280;54687;50.800;6.772;2023-07-16T08:03:50;91488.88;;;-144.06;21.24
11017;BME280;54687;50.800;6.772;2023-07-16T08:06:16;91510.03;;;-144.06;21.27
11017;BME280;54687;50.800;6.772;2023-07-16T08:08:43;91548.09;;;-144.06;21.31
11017;BME280;54687;50.800;6.772;2023-07-16T08:11:09;91467.75;;;-144.06;21.34
11017;BME280;54687;50.800;6.772;2023-07-16T08:13:36;91417.00;;;-144.06;21.23
11017;BME280;54687;50.800;6.772;2023-07-16T08:16:02;91450.81;;;-144.06;21.25
11017;BME280;54687;50.800;6.772;2023-07-16T08:18:29;91467.75;;;-144.06;21.10
11017;BME280;54687;50.800;6.772;2023-07-16T08:20:57;91311.25;;;-144.06;21.04
11017;BME280;54687;50.800;6.772;2023-07-16T08:23:24;91395.84;;;-144.06;21.19
11017;BME280;54687;50.800;6.772;2023-07-16T08:25:50;91459.28;;;-144.06;21.33
11017;BME280;54687;50.800;6.772;2023-07-16T08:28:17;91450.81;;;-144.06;21.31
11017;BME280;54687;50.800;6.772;2023-07-16T08:30:46;91417.00;;;-144.06;21.36
11017;BME280;54687;50.800;6.772;2023-07-16T08:33:13;91537.53;;;-144.06;21.25
11017;BME280;54687;50.800;6.772;2023-07-16T08:35:39;91491.00;;;-144.06;21.09
11017;BME280;54687;50.800;6.772;2023-07-16T08:38:07;91309.13;;;-144.06;21.29
11017;BME280;54687;50.800;6.772;2023-07-16T08:40:35;91349.31;;;-144.06;21.16
11017;BME280;54687;50.800;6.772;2023-07-16T08:43:02;91268.94;;;-144.06;21.29
11017;BME280;54687;50.800;6.772;2023-07-16T08:45:29;91459.28;;;-144.06;21.20
11017;BME280;54687;50.800;6.772;2023-07-16T08:47:56;91469.84;;;-144.06;21.32
11017;BME280;54687;50.800;6.772;2023-07-16T08:50:24;91355.66;;;-144.06;21.45
11017;BME280;54687;50.800;6.772;2023-07-16T08:52:52;91319.72;;;-144.06;21.37
11017;BME280;54687;50.800;6.772;2023-07-16T08:55:21;91249.91;;;-144.06;21.15
11017;BME280;54687;50.800;6.772;2023-07-16T08:57:48;91190.72;;;-144.06;21.28
11017;BME280;54687;50.800;6.772;2023-07-16T09:00:15;91108.22;;;-144.06;21.22
11017;BME280;54687;50.800;6.772;2023-07-16T09:02:42;91087.09;;;-144.06;21.12
11017;BME280;54687;50.800;6.772;2023-07-16T09:05:09;90951.75;;;-144.06;21.20
11017;BME280;54687;50.800;6.772;2023-07-16T09:07:36;91019.41;;;-144.06;20.98
11017;BME280;54687;50.800;6.772;2023-07-16T09:10:06;90960.22;;;-144.06;21.13
11017;BME280;54687;50.800;6.772;2023-07-16T09:12:34;90977.13;;;-144.06;20.86
11017;BME280;54687;50.800;6.772;2023-07-16T09:15:02;91044.78;;;-144.06;21.04
11017;BME280;54687;50.800;6.772;2023-07-16T09:17:28;91061.72;;;-144.06;21.18
11017;BME280;54687;50.800;6.772;2023-07-16T09:19:55;90917.91;;;-144.06;21.15
11017;BME280;54687;50.800;6.772;2023-07-16T09:22:22;90966.56;;;-144.06;21.00
11017;BME280;54687;50.800;6.772;2023-07-16T09:24:48;90972.91;;;-144.06;21.16
11017;BME280;54687;50.800;6.772;2023-07-16T09:27:15;91087.09;;;-144.06;21.17
11017;BME280;54687;50.800;6.772;2023-07-16T09:29:43;90901.00;;;-144.06;20.91
11017;BME280;54687;50.800;6.772;2023-07-16T09:32:10;90960.22;;;-144.06;21.07
11017;BME280;54687;50.800;6.772;2023-07-16T09:34:37;91074.41;;;-144.06;21.08
11017;BME280;54687;50.800;6.772;2023-07-16T09:37:05;91015.19;;;-144.06;21.06
11017;BME280;54687;50.800;6.772;2023-07-16T09:39:32;90892.53;;;-144.06;21.06
11017;BME280;54687;50.800;6.772;2023-07-16T09:41:59;91017.31;;;-144.06;21.12
11017;BME280;54687;50.800;6.772;2023-07-16T09:44:25;90879.84;;;-144.06;21.09
11017;BME280;54687;50.800;6.772;2023-07-16T09:46:54;90643.03;;;-144.06;21.18
11017;BME280;54687;50.800;6.772;2023-07-16T09:49:20;90791.03;;;-144.06;20.98
11017;BME280;54687;50.800;6.772;2023-07-16T09:51:48;90953.88;;;-144.06;21.05
11017;BME280;54687;50.800;6.772;2023-07-16T09:54:18;90585.94;;;-144.06;20.83
11017;BME280;54687;50.800;6.772;2023-07-16T09:56:47;90577.50;;;-144.06;20.87
11017;BME280;54687;50.800;6.772;2023-07-16T09:59:16;90433.72;;;-144.06;20.73
11017;BME280;54687;50.800;6.772;2023-07-16T10:01:43;90220.19;;;-144.06;20.85
11017;BME280;54687;50.800;6.772;2023-07-16T10:04:13;90103.91;;;-144.06;20.43
11017;BME280;54687;50.800;6.772;2023-07-16T10:06:58;90148.31;;;-144.06;20.26
11017;BME280;54687;50.800;6.772;2023-07-16T10:09:32;89985.53;;;-144.06;20.26
11017;BME280;54687;50.800;6.772;2023-07-16T10:12:14;90021.47;;;-144.06;20.03
11017;BME280;54687;50.800;6.772;2023-07-16T10:14:42;90266.69;;;-144.06;20.47
11017;BME280;54687;50.800;6.772;2023-07-16T10:17:14;90397.78;;;-144.06;20.43
11017;BME280;54687;50.800;6.772;2023-07-16T10:19:50;90235.00;;;-144.06;20.29
11017;BME280;54687;50.800;6.772;2023-07-16T10:22:18;90296.31;;;-144.06;20.29
11017;BME280;54687;50.800;6.772;2023-07-16T10:24:51;90317.44;;;-144.06;20.32
11017;BME280;54687;50.800;6.772;2023-07-16T10:27:27;90412.59;;;-144.06;20.31
11017;BME280;54687;50.800;6.772;2023-07-16T10:29:55;90583.84;;;-144.06;20.54
11017;BME280;54687;50.800;6.772;2023-07-16T10:32:22;90389.31;;;-144.06;20.66
11017;BME280;54687;50.800;6.772;2023-07-16T10:34:53;90180.03;;;-144.06;20.41
11017;BME280;54687;50.800;6.772;2023-07-16T10:37:20;90317.44;;;-144.06;20.49
11017;BME280;54687;50.800;6.772;2023-07-16T10:39:47;90089.13;;;-144.06;20.44
11017;BME280;54687;50.800;6.772;2023-07-16T10:42:15;89924.22;;;-144.06;20.25
11017;BME280;54687;50.800;6.772;2023-07-16T10:44:42;89913.66;;;-144.06;20.26
11017;BME280;54687;50.800;6.772;2023-07-16T10:47:17;89865.03;;;-144.06;20.35
11017;BME280;54687;50.800;6.772;2023-07-16T10:49:44;89459.19;;;-144.06;19.85
11017;BME280;54687;50.800;6.772;2023-07-16T10:52:12;89776.25;;;-144.06;19.97
11017;BME280;54687;50.800;6.772;2023-07-16T10:54:39;90171.56;;;-144.06;20.08
11017;BME280;54687;50.800;6.772;2023-07-16T10:57:06;90120.81;;;-144.06;20.12
11017;BME280;54687;50.800;6.772;2023-07-16T10:59:32;89881.94;;;-144.06;20.11
11017;BME280;54687;50.800;6.772;2023-07-16T11:01:59;89860.81;;;-144.06;19.95
11017;BME280;54687;50.800;6.772;2023-07-16T11:04:26;89772.03;;;-144.06;20.05
11017;BME280;54687;50.800;6.772;2023-07-16T11:07:04;89835.44;;;-144.06;20.02
11017;BME280;54687;50.800;6.772;2023-07-16T11:09:32;89450.75;;;-144.06;20.07
11017;BME280;54687;50.800;6.772;2023-07-16T11:12:05;89666.34;;;-144.06;19.87
11017;BME280;54687;50.800;6.772;2023-07-16T11:14:32;89695.94;;;-144.06;20.11
11017;BME280;54687;50.800;6.772;2023-07-16T11:17:04;89645.19;;;-144.06;19.92
11017;BME280;54687;50.800;6.772;2023-07-16T11:19:31;89560.66;;;-144.06;20.14
11017;BME280;54687;50.800;6.772;2023-07-16T11:21:57;89592.34;;;-144.06;20.16
11017;BME280;54687;50.800;6.772;2023-07-16T11:24:24;89755.13;;;-144.06;20.09
11017;BME280;54687;50.800;6.772;2023-07-16T11:26:54;89552.19;;;-144.06;19.95
11017;BME280;54687;50.800;6.772;2023-07-16T11:29:22;89679.03;;;-144.06;19.85
11017;BME280;54687;50.800;6.772;2023-07-16T11:31:49;89822.75;;;-144.06;19.89
11017;BME280;54687;50.800;6.772;2023-07-16T11:34:16;89522.59;;;-144.06;19.99
11017;BME280;54687;50.800;6.772;2023-07-16T11:36:43;89516.25;;;-144.06;20.04
11017;BME280;54687;50.800;6.772;2023-07-16T11:39:10;89478.22;;;-144.06;19.92
11017;BME280;54687;50.800;6.772;2023-07-16T11:41:37;89423.25;;;-144.06;19.82
11017;BME280;54687;50.800;6.772;2023-07-16T11:44:07;89526.81;;;-144.06;19.60
11017;BME280;54687;50.800;6.772;2023-07-16T11:46:35;89814.31;;;-144.06;19.95
11017;BME280;54687;50.800;6.772;2023-07-16T11:49:02;89856.59;;;-144.06;20.09
11017;BME280;54687;50.800;6.772;2023-07-16T11:51:29;89632.50;;;-144.06;19.88
11017;BME280;54687;50.800;6.772;2023-07-16T11:53:56;89490.91;;;-144.06;19.87
11017;BME280;54687;50.800;6.772;2023-07-16T11:56:23;89664.22;;;-144.06;19.91
11017;BME280;54687;50.800;6.772;2023-07-16T11:58:50;89509.91;;;-144.06;19.81
11017;BME280;54687;50.800;6.772;2023-07-16T12:01:18;89471.88;;;-144.06;19.62
11017;BME280;54687;50.800;6.772;2023-07-16T12:03:44;89628.28;;;-144.06;19.71
11017;BME280;54687;50.800;6.772;2023-07-16T12:06:12;89393.66;;;-144.06;19.65
11017;BME280;54687;50.800;6.772;2023-07-16T12:08:38;89070.31;;;-144.06;19.90
11017;BME280;54687;50.800;6.772;2023-07-16T12:11:05;89150.59;;;-144.06;19.65
11017;BME280;54687;50.800;6.772;2023-07-16T12:13:32;88943.50;;;-144.06;19.70
11017;BME280;54687;50.800;6.772;2023-07-16T12:15:59;89023.81;;;-144.06;19.81
11017;BME280;54687;50.800;6.772;2023-07-16T12:18:27;89224.59;;;-144.06;19.69
11017;BME280;54687;50.800;6.772;2023-07-16T12:20:56;89323.91;;;-144.06;19.77
11017;BME280;54687;50.800;6.772;2023-07-16T12:23:22;88985.75;;;-144.06;19.74
11017;BME280;54687;50.800;6.772;2023-07-16T12:25:50;89129.47;;;-144.06;19.74
11017;BME280;54687;50.800;6.772;2023-07-16T12:28:16;88858.97;;;-144.06;19.89
11017;BME280;54687;50.800;6.772;2023-07-16T12:30:43;88740.63;;;-144.06;19.47
11017;BME280;54687;50.800;6.772;2023-07-16T12:33:09;88848.41;;;-144.06;19.58
11017;BME280;54687;50.800;6.772;2023-07-16T12:35:37;88525.09;;;-144.06;19.63
11017;BME280;54687;50.800;6.772;2023-07-16T12:38:04;88867.41;;;-144.06;19.37
11017;BME280;54687;50.800;6.772;2023-07-16T12:40:30;88861.06;;;-144.06;19.57
11017;BME280;54687;50.800;6.772;2023-07-16T12:42:57;88592.69;;;-144.06;19.27